| time (UTC) | temp F | wind direction | speed knots | gust knots | rain 1hr in | rain 24hr in | rain mn in | humidity % | barometer mb |
| 20260505165102 | 69 | 232 | 3.5 | 13.0 | 0.00 | 0.03 | 0.03 | 59 | 1003.0 |
| 20260505164602 | 69 | 211 | 3.5 | 17.4 | 0.00 | 0.03 | 0.03 | 59 | 1002.9 |
| 20260505164102 | 68 | 220 | 3.5 | 18.2 | 0.00 | 0.03 | 0.03 | 60 | 1003.1 |
| 20260505163603 | 68 | 248 | 1.7 | 18.2 | 0.00 | 0.03 | 0.03 | 61 | 1003.2 |
| 20260505163102 | 67 | 243 | 0.9 | 11.3 | 0.00 | 0.03 | 0.03 | 61 | 1003.3 |
| 20260505162602 | 67 | 233 | 1.7 | 13.9 | 0.00 | 0.03 | 0.03 | 62 | 1003.3 |
| 20260505162102 | 67 | 246 | 2.6 | 13.9 | 0.00 | 0.03 | 0.03 | 61 | 1003.3 |
| 20260505161602 | 67 | 234 | 3.5 | 13.9 | 0.00 | 0.03 | 0.03 | 61 | 1003.3 |
| 20260505161103 | 67 | 248 | 3.5 | 13.9 | 0.00 | 0.03 | 0.03 | 61 | 1003.4 |
| 20260505160603 | 67 | 251 | 3.5 | 24.3 | 0.00 | 0.03 | 0.03 | 61 | 1003.2 |
| 20260505160104 | 67 | 204 | 4.3 | 24.3 | 0.00 | 0.03 | 0.03 | 61 | 1003.1 |
| 20260505153102 | 68 | 240 | 4.3 | 16.5 | 0.00 | 0.03 | 0.03 | 61 | 1002.5 |
| 20260505152603 | 68 | 225 | 4.3 | 16.5 | 0.00 | 0.03 | 0.03 | 60 | 1002.3 |
| 20260505152103 | 68 | 243 | 1.7 | 14.8 | 0.00 | 0.03 | 0.03 | 60 | 1002.1 |
| 20260505151603 | 68 | 198 | 1.7 | 14.8 | 0.00 | 0.03 | 0.03 | 61 | 1002.1 |
| 20260505151102 | 68 | 250 | 1.7 | 12.2 | 0.00 | 0.03 | 0.03 | 61 | 1002.0 |
| 20260505150603 | 67 | 240 | 3.5 | 23.5 | 0.00 | 0.03 | 0.03 | 61 | 1002.1 |
| 20260505140602 | 71 | 240 | 4.3 | 22.6 | 0.00 | 0.03 | 0.03 | 56 | 1001.4 |
| 20260505124601 | 68 | 230 | 0.0 | 3.5 | 0.00 | 0.03 | 0.03 | 63 | 1001.1 |
| 20260505124100 | 68 | 0 | 0.9 | 7.8 | 0.00 | 0.03 | 0.03 | 63 | 1001.1 |
| 20260505123559 | 68 | 0 | 0.9 | 9.6 | 0.00 | 0.03 | 0.03 | 62 | 1001.1 |
| 20260505123100 | 67 | 0 | 0.9 | 9.6 | 0.00 | 0.03 | 0.03 | 64 | 1001.2 |
| 20260505122600 | 67 | 223 | 0.9 | 7.0 | 0.00 | 0.03 | 0.03 | 64 | 1001.1 |
| 20260505122100 | 67 | 211 | 0.9 | 9.6 | 0.00 | 0.03 | 0.03 | 65 | 1001.0 |
| 20260505121600 | 67 | 185 | 0.0 | 9.6 | 0.00 | 0.03 | 0.03 | 64 | 1000.9 |
| 20260505121100 | 67 | 191 | 0.0 | 3.5 | 0.00 | 0.03 | 0.03 | 65 | 1000.8 |
| 20260505120701 | 66 | 163 | 0.0 | 5.2 | 0.00 | 0.03 | 0.03 | 66 | 1000.8 |
| 20260505120056 | 66 | 0 | 0.0 | 5.2 | 0.00 | 0.03 | 0.03 | 66 | 1000.7 |
| 20260505115556 | 66 | 207 | 0.0 | 7.0 | 0.00 | 0.03 | 0.03 | 67 | 1000.8 |
| 20260505115056 | 66 | 202 | 0.0 | 7.0 | 0.00 | 0.03 | 0.03 | 66 | 1000.9 |
| 20260505114556 | 66 | 177 | 0.0 | 6.1 | 0.00 | 0.03 | 0.03 | 66 | 1000.8 |
| 20260505114057 | 66 | 236 | 0.9 | 11.3 | 0.00 | 0.03 | 0.03 | 67 | 1000.8 |
| 20260505113556 | 66 | 238 | 0.9 | 11.3 | 0.00 | 0.03 | 0.03 | 67 | 1000.7 |
| 20260505113056 | 65 | 231 | 0.0 | 9.6 | 0.00 | 0.03 | 0.03 | 67 | 1000.7 |
| 20260505112556 | 65 | 176 | 0.9 | 7.8 | 0.00 | 0.03 | 0.03 | 67 | 1000.6 |
| 20260505112155 | 65 | 200 | 0.9 | 7.8 | 0.00 | 0.03 | 0.03 | 67 | 1000.6 |
| 20260505111547 | 65 | 205 | 0.9 | 8.7 | 0.00 | 0.03 | 0.03 | 67 | 1000.5 |
| 20260505111038 | 65 | 214 | 0.9 | 8.7 | 0.00 | 0.03 | 0.03 | 68 | 1000.5 |
| 20260505110545 | 65 | 238 | 0.0 | 7.8 | 0.00 | 0.03 | 0.03 | 68 | 1000.4 |
| 20260505102029 | 62 | 205 | 0.0 | 8.7 | 0.00 | 0.03 | 0.03 | 74 | 999.9 |
| 20260505101529 | 61 | 188 | 0.0 | 8.7 | 0.00 | 0.03 | 0.03 | 75 | 1000.0 |
| 20260505101029 | 61 | 194 | 0.0 | 4.3 | 0.00 | 0.03 | 0.03 | 76 | 999.9 |
| 20260505100546 | 61 | 167 | 0.0 | 2.6 | 0.00 | 0.03 | 0.03 | 77 | 999.9 |
| 20260505100028 | 60 | 173 | 0.0 | 0.9 | 0.00 | 0.03 | 0.03 | 77 | 1000.0 |
| 20260505095530 | 60 | 148 | 0.0 | 3.5 | 0.00 | 0.03 | 0.03 | 78 | 999.9 |
| 20260505095029 | 60 | 197 | 0.0 | 3.5 | 0.00 | 0.03 | 0.03 | 78 | 999.8 |
| 20260505094530 | 60 | 146 | 0.0 | 7.0 | 0.00 | 0.03 | 0.03 | 78 | 999.9 |
| 20260505094029 | 61 | 141 | 0.0 | 7.0 | 0.00 | 0.03 | 0.03 | 77 | 999.9 |
| 20260505093029 | 61 | 146 | 0.0 | 4.3 | 0.00 | 0.03 | 0.03 | 78 | 999.8 |
| 20260505092530 | 61 | 191 | 0.0 | 4.3 | 0.00 | 0.03 | 0.03 | 78 | 999.7 |
| 20260505092028 | 61 | 154 | 0.0 | 5.2 | 0.00 | 0.03 | 0.03 | 78 | 999.7 |
| 20260505091529 | 61 | 184 | 0.0 | 7.0 | 0.00 | 0.03 | 0.03 | 78 | 999.8 |
| 20260505091029 | 61 | 182 | 0.0 | 7.0 | 0.00 | 0.03 | 0.03 | 78 | 1000.0 |
| 20260505090529 | 60 | 170 | 0.0 | 7.0 | 0.00 | 0.03 | 0.03 | 79 | 1000.0 |
| 20260505090029 | 60 | 167 | 0.0 | 6.1 | 0.00 | 0.03 | 0.03 | 80 | 1000.0 |
| 20260505085529 | 60 | 126 | 0.0 | 6.1 | 0.00 | 0.03 | 0.03 | 80 | 1000.1 |
| 20260505085029 | 60 | 148 | 0.9 | 6.1 | 0.00 | 0.03 | 0.03 | 81 | 1000.2 |
| 20260505084538 | 60 | 178 | 0.0 | 5.2 | 0.00 | 0.03 | 0.03 | 82 | 1000.3 |
| 20260505084029 | 59 | 150 | 0.0 | 2.6 | 0.00 | 0.03 | 0.03 | 83 | 1000.3 |
| 20260505083539 | 59 | 150 | 0.0 | 3.5 | 0.00 | 0.03 | 0.03 | 83 | 1000.2 |
| 20260505083029 | 59 | 142 | 0.0 | 3.5 | 0.01 | 0.03 | 0.03 | 84 | 1000.2 |
| 20260505082529 | 59 | 161 | 0.0 | 0.0 | 0.01 | 0.03 | 0.03 | 84 | 1000.3 |
| 20260505082029 | 59 | 175 | 0.0 | 0.9 | 0.01 | 0.03 | 0.03 | 84 | 1000.3 |
| 20260505081529 | 59 | 159 | 0.0 | 0.9 | 0.01 | 0.03 | 0.03 | 84 | 1000.3 |
| 20260505081024 | 59 | 215 | 0.0 | 0.9 | 0.02 | 0.03 | 0.03 | 84 | 1000.5 |
| 20260505080518 | 59 | 138 | 0.0 | 0.9 | 0.02 | 0.03 | 0.03 | 85 | 1000.5 |
| 20260505080011 | 59 | 157 | 0.0 | 1.7 | 0.02 | 0.03 | 0.03 | 85 | 1000.5 |
| 20260505075505 | 59 | 153 | 0.0 | 1.7 | 0.02 | 0.03 | 0.03 | 85 | 1000.6 |
| 20260505075006 | 60 | 158 | 0.0 | 0.9 | 0.03 | 0.03 | 0.03 | 85 | 1000.5 |
| 20260505074504 | 60 | 180 | 0.0 | 4.3 | 0.03 | 0.03 | 0.03 | 84 | 1000.6 |
| 20260505074005 | 60 | 208 | 0.0 | 7.0 | 0.03 | 0.03 | 0.03 | 84 | 1000.8 |
| 20260505073539 | 60 | 211 | 0.0 | 7.0 | 0.03 | 0.03 | 0.03 | 84 | 1001.0 |
| 20260505073004 | 60 | 203 | 0.0 | 7.8 | 0.02 | 0.02 | 0.02 | 83 | 1001.3 |
| 20260505072504 | 60 | 215 | 0.9 | 9.6 | 0.02 | 0.02 | 0.02 | 83 | 1001.2 |
| 20260505072003 | 61 | 228 | 0.9 | 11.3 | 0.02 | 0.02 | 0.02 | 82 | 1001.2 |
| 20260505071502 | 61 | 225 | 1.7 | 11.3 | 0.02 | 0.02 | 0.02 | 80 | 1001.1 |
| 20260505071001 | 61 | 213 | 0.9 | 9.6 | 0.01 | 0.01 | 0.01 | 79 | 1001.1 |
| 20260505070502 | 61 | 232 | 0.9 | 11.3 | 0.01 | 0.01 | 0.01 | 78 | 1001.1 |
| 20260505070001 | 62 | 219 | 0.9 | 11.3 | 0.01 | 0.01 | 0.01 | 76 | 1001.1 |
| 20260505065501 | 62 | 204 | 0.9 | 13.9 | 0.01 | 0.01 | 0.01 | 74 | 1001.2 |
| 20260505065001 | 63 | 207 | 1.7 | 13.9 | 0.00 | 0.00 | 0.00 | 71 | 1001.2 |
| 20260505064501 | 64 | 219 | 0.9 | 10.4 | 0.00 | 0.00 | 0.00 | 68 | 1001.2 |
| 20260505064001 | 64 | 191 | 0.0 | 10.4 | 0.00 | 0.00 | 0.00 | 68 | 1001.1 |
| 20260505063501 | 63 | 225 | 0.0 | 4.3 | 0.00 | 0.00 | 0.00 | 69 | 1001.1 |
| 20260505063002 | 63 | 229 | 0.0 | 4.3 | 0.00 | 0.00 | 0.00 | 69 | 1001.3 |
| 20260505062500 | 63 | 194 | 0.0 | 4.3 | 0.00 | 0.00 | 0.00 | 69 | 1001.2 |
| 20260505061954 | 63 | 195 | 0.0 | 4.3 | 0.00 | 0.00 | 0.00 | 69 | 1001.1 |
| 20260505061447 | 63 | 200 | 0.0 | 2.6 | 0.00 | 0.00 | 0.00 | 69 | 1001.1 |
| 20260505060942 | 63 | 196 | 0.0 | 2.6 | 0.00 | 0.00 | 0.00 | 69 | 1001.1 |
| 20260505060531 | 63 | 183 | 0.0 | 4.3 | 0.00 | 0.00 | 0.00 | 68 | 1001.1 |
| 20260505055941 | 63 | 209 | 0.0 | 4.3 | 0.00 | 0.00 | 0.00 | 68 | 1001.0 |
| 20260505055440 | 63 | 192 | 0.0 | 2.6 | 0.00 | 0.00 | 0.00 | 68 | 1001.0 |
| 20260505054940 | 64 | 171 | 0.0 | 5.2 | 0.00 | 0.00 | 0.00 | 67 | 1001.0 |
| 20260505054438 | 64 | 131 | 0.0 | 7.8 | 0.00 | 0.00 | 0.00 | 66 | 1001.0 |
| 20260505053938 | 64 | 149 | 0.0 | 7.8 | 0.00 | 0.00 | 0.00 | 65 | 1001.0 |
| 20260505053438 | 64 | 176 | 0.0 | 6.1 | 0.00 | 0.00 | 0.00 | 64 | 1001.1 |
| 20260505052938 | 65 | 196 | 0.9 | 7.8 | 0.00 | 0.00 | 0.00 | 64 | 1001.1 |
| 20260505052438 | 65 | 164 | 0.9 | 12.2 | 0.00 | 0.00 | 0.00 | 63 | 1001.1 |
| 20260505051938 | 65 | 223 | 0.0 | 12.2 | 0.00 | 0.00 | 0.00 | 62 | 1001.2 |
| 20260505051438 | 65 | 226 | 0.0 | 4.3 | 0.00 | 0.00 | 0.00 | 62 | 1001.1 |
| 20260505050936 | 65 | 219 | 0.0 | 6.1 | 0.00 | 0.00 | 0.00 | 61 | 1001.2 |
| 20260505050436 | 65 | 192 | 0.0 | 6.1 | 0.00 | 0.00 | 0.00 | 61 | 1001.2 |
| 20260505041431 | 64 | 177 | 0.0 | 0.9 | 0.00 | 0.00 | 0.00 | 57 | 1001.2 |
| 20260505040932 | 64 | 180 | 0.0 | 0.9 | 0.00 | 0.00 | 0.00 | 57 | 1001.4 |
| 20260505040431 | 64 | 153 | 0.0 | 0.0 | 0.00 | 0.00 | 0.00 | 56 | 1001.3 |
| 20260505035932 | 64 | 181 | 0.0 | 0.9 | 0.00 | 0.00 | 0.00 | 56 | 1001.5 |
| 20260505035432 | 64 | 180 | 0.0 | 0.9 | 0.00 | 0.00 | 0.00 | 55 | 1001.5 |
| 20260505034935 | 64 | 172 | 0.0 | 0.9 | 0.00 | 0.00 | 0.00 | 55 | 1001.6 |
| 20260505034433 | 64 | 194 | 0.0 | 2.6 | 0.00 | 0.00 | 0.00 | 54 | 1001.6 |
| 20260505033932 | 65 | 188 | 0.0 | 7.0 | 0.00 | 0.00 | 0.00 | 54 | 1001.8 |
| 20260505033433 | 65 | 186 | 0.9 | 7.0 | 0.00 | 0.00 | 0.00 | 53 | 1001.8 |
| 20260505032931 | 65 | 212 | 0.9 | 7.0 | 0.00 | 0.00 | 0.00 | 52 | 1002.0 |
| 20260505032429 | 65 | 225 | 0.9 | 9.6 | 0.00 | 0.00 | 0.00 | 51 | 1001.9 |
| 20260505031930 | 65 | 220 | 0.9 | 9.6 | 0.00 | 0.00 | 0.00 | 50 | 1001.6 |
| 20260505031429 | 64 | 201 | 0.0 | 4.3 | 0.00 | 0.00 | 0.00 | 51 | 1002.0 |
| 20260505030929 | 64 | 208 | 0.0 | 0.0 | 0.00 | 0.00 | 0.00 | 50 | 1001.8 |
| 20260505030429 | 64 | 207 | 0.0 | 0.0 | 0.00 | 0.00 | 0.00 | 50 | 1001.6 |
| 20260505025930 | 63 | 208 | 0.0 | 0.0 | 0.00 | 0.00 | 0.00 | 50 | 1001.4 |
| 20260505025428 | 63 | 207 | 0.0 | 0.0 | 0.00 | 0.00 | 0.00 | 50 | 1001.5 |
| 20260505024922 | 63 | 207 | 0.0 | 0.0 | 0.00 | 0.00 | 0.00 | 50 | 1001.5 |
| 20260505024416 | 63 | 207 | 0.0 | 0.0 | 0.00 | 0.00 | 0.00 | 50 | 1001.4 |
| 20260505023916 | 63 | 208 | 0.0 | 0.0 | 0.00 | 0.00 | 0.00 | 50 | 1001.5 |
| 20260505023417 | 63 | 208 | 0.0 | 0.0 | 0.00 | 0.00 | 0.00 | 50 | 1001.5 |
| 20260505022916 | 64 | 208 | 0.0 | 0.0 | 0.00 | 0.00 | 0.00 | 48 | 1001.4 |
| 20260505022415 | 64 | 207 | 0.0 | 0.0 | 0.00 | 0.00 | 0.00 | 48 | 1001.5 |
| 20260505021912 | 64 | 208 | 0.0 | 0.0 | 0.00 | 0.00 | 0.00 | 48 | 1001.5 |
| 20260505021412 | 64 | 207 | 0.0 | 0.0 | 0.00 | 0.00 | 0.00 | 47 | 1001.6 |
| 20260505020912 | 65 | 211 | 0.0 | 0.0 | 0.00 | 0.00 | 0.00 | 47 | 1001.6 |
| 20260505020410 | 65 | 211 | 0.0 | 0.0 | 0.00 | 0.00 | 0.00 | 46 | 1001.8 |
| 20260505015910 | 65 | 211 | 0.0 | 0.9 | 0.00 | 0.00 | 0.00 | 46 | 1001.9 |
| 20260505015410 | 65 | 211 | 0.0 | 2.6 | 0.00 | 0.00 | 0.00 | 46 | 1001.9 |
| 20260505014909 | 65 | 217 | 0.0 | 2.6 | 0.00 | 0.00 | 0.00 | 46 | 1002.0 |
| 20260505014406 | 65 | 220 | 0.0 | 0.0 | 0.00 | 0.00 | 0.00 | 46 | 1002.1 |
| 20260505013906 | 65 | 220 | 0.0 | 0.0 | 0.00 | 0.00 | 0.00 | 45 | 1002.0 |
| 20260505013518 | 66 | 220 | 0.0 | 0.0 | 0.00 | 0.00 | 0.00 | 44 | 1002.0 |
| 20260505012904 | 66 | 220 | 0.0 | 0.0 | 0.00 | 0.00 | 0.00 | 44 | 1002.0 |
| 20260505012519 | 66 | 220 | 0.0 | 0.0 | 0.00 | 0.00 | 0.00 | 43 | 1001.9 |
| 20260505011902 | 67 | 220 | 0.0 | 0.0 | 0.00 | 0.00 | 0.00 | 43 | 1001.9 |
| 20260505011401 | 67 | 220 | 0.0 | 0.0 | 0.00 | 0.00 | 0.00 | 42 | 1001.8 |
| 20260505010901 | 67 | 220 | 0.0 | 0.0 | 0.00 | 0.00 | 0.00 | 42 | 1001.8 |
| 20260505010401 | 67 | 219 | 0.0 | 0.0 | 0.00 | 0.00 | 0.00 | 42 | 1001.8 |
| 20260505005901 | 67 | 220 | 0.0 | 0.0 | 0.00 | 0.00 | 0.00 | 41 | 1001.8 |
| 20260505005402 | 68 | 220 | 0.0 | 0.0 | 0.00 | 0.00 | 0.00 | 41 | 1001.6 |
| 20260505004903 | 68 | 220 | 0.0 | 0.0 | 0.00 | 0.00 | 0.00 | 40 | 1001.6 |
| 20260505004402 | 68 | 220 | 0.0 | 0.0 | 0.00 | 0.00 | 0.00 | 40 | 1001.5 |
| 20260505003902 | 69 | 219 | 0.0 | 0.0 | 0.00 | 0.00 | 0.00 | 39 | 1001.6 |
| 20260505003402 | 69 | 219 | 0.0 | 0.0 | 0.00 | 0.00 | 0.00 | 39 | 1001.5 |
| 20260505002902 | 69 | 221 | 0.0 | 0.0 | 0.00 | 0.00 | 0.00 | 38 | 1001.6 |
| 20260505002518 | 69 | 221 | 0.0 | 0.0 | 0.00 | 0.00 | 0.00 | 37 | 1001.6 |
| 20260505001902 | 70 | 230 | 0.0 | 0.9 | 0.00 | 0.00 | 0.00 | 37 | 1001.6 |
| 20260505001401 | 70 | 229 | 0.0 | 3.5 | 0.00 | 0.00 | 0.00 | 37 | 1001.6 |
| 20260505000902 | 70 | 230 | 0.0 | 3.5 | 0.00 | 0.00 | 0.00 | 36 | 1001.6 |
| 20260505000402 | 71 | 234 | 0.0 | 0.0 | 0.00 | 0.00 | 0.00 | 37 | 1001.8 |
| 20260504235901 | 71 | 234 | 0.0 | 0.9 | 0.00 | 0.00 | 0.00 | 36 | 1001.6 |
| 20260504235516 | 71 | 236 | 0.0 | 0.9 | 0.00 | 0.01 | 0.00 | 35 | 1001.6 |
| 20260504234900 | 71 | 229 | 0.0 | 0.0 | 0.00 | 0.01 | 0.00 | 35 | 1001.6 |
| 20260504234517 | 71 | 226 | 0.0 | 0.0 | 0.00 | 0.01 | 0.00 | 36 | 1001.6 |
| 20260504233901 | 72 | 235 | 0.0 | 0.0 | 0.00 | 0.01 | 0.00 | 35 | 1001.6 |
| 20260504233402 | 72 | 242 | 0.0 | 0.0 | 0.00 | 0.01 | 0.00 | 35 | 1001.6 |
| 20260504232901 | 72 | 242 | 0.0 | 0.0 | 0.00 | 0.01 | 0.00 | 35 | 1001.6 |
| 20260504232402 | 72 | 242 | 0.0 | 0.0 | 0.00 | 0.01 | 0.00 | 34 | 1001.6 |
| 20260504231901 | 72 | 252 | 0.0 | 6.1 | 0.00 | 0.01 | 0.00 | 34 | 1001.6 |
| 20260504231401 | 73 | 259 | 0.9 | 8.7 | 0.00 | 0.01 | 0.00 | 34 | 1001.6 |
| 20260504230901 | 73 | 227 | 0.9 | 11.3 | 0.00 | 0.01 | 0.00 | 33 | 1001.6 |
| 20260504230516 | 73 | 235 | 0.0 | 11.3 | 0.00 | 0.01 | 0.00 | 34 | 1001.6 |
| 20260504225900 | 73 | 221 | 0.9 | 9.6 | 0.00 | 0.01 | 0.00 | 32 | 1001.5 |
| 20260504225517 | 73 | 231 | 0.9 | 9.6 | 0.00 | 0.01 | 0.00 | 32 | 1001.5 |
| 20260504224901 | 73 | 233 | 0.0 | 2.6 | 0.00 | 0.01 | 0.00 | 33 | 1001.5 |
| 20260504224402 | 73 | 243 | 0.9 | 8.7 | 0.00 | 0.01 | 0.00 | 32 | 1001.4 |
| 20260504223901 | 74 | 243 | 0.9 | 8.7 | 0.00 | 0.01 | 0.00 | 32 | 1001.4 |
| 20260504223402 | 74 | 275 | 0.0 | 6.1 | 0.00 | 0.01 | 0.00 | 31 | 1001.4 |
| 20260504222901 | 74 | 239 | 0.9 | 9.6 | 0.00 | 0.01 | 0.00 | 32 | 1001.4 |
| 20260504222402 | 75 | 232 | 0.9 | 9.6 | 0.00 | 0.01 | 0.00 | 31 | 1001.4 |
| 20260504221901 | 75 | 219 | 0.0 | 8.7 | 0.00 | 0.01 | 0.00 | 32 | 1001.3 |
| 20260504221401 | 75 | 223 | 0.9 | 6.1 | 0.00 | 0.01 | 0.00 | 31 | 1001.3 |
| 20260504220901 | 75 | 269 | 0.0 | 6.1 | 0.00 | 0.01 | 0.00 | 31 | 1001.3 |
| 20260504220516 | 75 | 229 | 0.0 | 6.1 | 0.00 | 0.01 | 0.00 | 31 | 1001.3 |
| 20260504215901 | 75 | 213 | 0.0 | 5.2 | 0.00 | 0.01 | 0.00 | 31 | 1001.4 |
| 20260504215402 | 75 | 217 | 0.9 | 6.1 | 0.00 | 0.01 | 0.00 | 31 | 1001.4 |
| 20260504214901 | 75 | 244 | 2.6 | 14.8 | 0.00 | 0.01 | 0.00 | 31 | 1001.4 |
| 20260504214402 | 75 | 246 | 2.6 | 14.8 | 0.00 | 0.01 | 0.00 | 31 | 1001.5 |
| 20260504213901 | 75 | 196 | 1.7 | 10.4 | 0.00 | 0.01 | 0.00 | 31 | 1001.5 |
| 20260504213514 | 75 | 204 | 1.7 | 12.2 | 0.00 | 0.01 | 0.00 | 30 | 1001.5 |
| 20260504212901 | 75 | 216 | 2.6 | 15.6 | 0.00 | 0.01 | 0.00 | 31 | 1001.5 |
| 20260504212402 | 75 | 242 | 3.5 | 15.6 | 0.00 | 0.01 | 0.00 | 31 | 1001.4 |
| 20260504211901 | 75 | 276 | 3.5 | 16.5 | 0.00 | 0.01 | 0.00 | 31 | 1001.6 |
| 20260504211401 | 76 | 0 | 2.6 | 16.5 | 0.00 | 0.01 | 0.00 | 31 | 1001.6 |
| 20260504210901 | 76 | 219 | 2.6 | 13.0 | 0.00 | 0.01 | 0.00 | 31 | 1001.5 |
| 20260504210401 | 75 | 213 | 4.3 | 15.6 | 0.00 | 0.01 | 0.00 | 32 | 1001.6 |
| 20260504205901 | 75 | 218 | 4.3 | 15.6 | 0.00 | 0.01 | 0.00 | 31 | 1001.6 |
| 20260504205402 | 76 | 231 | 1.7 | 14.8 | 0.00 | 0.01 | 0.00 | 31 | 1001.8 |
| 20260504204901 | 76 | 222 | 1.7 | 11.3 | 0.00 | 0.01 | 0.00 | 32 | 1001.8 |
| 20260504204401 | 76 | 222 | 1.7 | 18.2 | 0.00 | 0.01 | 0.00 | 31 | 1001.9 |
| 20260504203901 | 76 | 228 | 1.7 | 18.2 | 0.00 | 0.01 | 0.00 | 31 | 1001.9 |
| 20260504203401 | 76 | 246 | 2.6 | 13.9 | 0.00 | 0.01 | 0.00 | 34 | 1001.9 |
| 20260504202901 | 75 | 240 | 4.3 | 18.2 | 0.00 | 0.01 | 0.00 | 34 | 1002.0 |
| 20260504202402 | 75 | 171 | 3.5 | 18.2 | 0.00 | 0.01 | 0.00 | 33 | 1002.0 |
| 20260504201901 | 75 | 235 | 2.6 | 17.4 | 0.00 | 0.01 | 0.00 | 35 | 1002.0 |
| 20260504201403 | 75 | 269 | 6.1 | 23.5 | 0.00 | 0.01 | 0.00 | 34 | 1002.1 |
| 20260504200901 | 74 | 254 | 6.1 | 23.5 | 0.00 | 0.01 | 0.00 | 34 | 1002.1 |
| 20260504200436 | 75 | 205 | 3.5 | 19.1 | 0.00 | 0.01 | 0.00 | 34 | 1002.2 |
| 20260504195956 | 75 | 219 | 3.5 | 19.1 | 0.00 | 0.01 | 0.00 | 35 | 1002.3 |
| 20260504195514 | 75 | 227 | 2.6 | 14.8 | 0.00 | 0.01 | 0.00 | 34 | 1002.4 |
| 20260504194902 | 74 | 233 | 4.3 | 16.5 | 0.00 | 0.01 | 0.00 | 34 | 1002.3 |
| 20260504194403 | 74 | 259 | 3.5 | 16.5 | 0.00 | 0.01 | 0.00 | 34 | 1002.6 |
| 20260504193902 | 74 | 217 | 1.7 | 15.6 | 0.00 | 0.01 | 0.00 | 37 | 1002.7 |
| 20260504193403 | 74 | 200 | 3.5 | 17.4 | 0.00 | 0.01 | 0.00 | 36 | 1002.7 |
| 20260504192517 | 74 | 218 | 2.6 | 12.2 | 0.00 | 0.01 | 0.00 | 36 | 1002.8 |
| 20260504191902 | 74 | 233 | 3.5 | 13.9 | 0.00 | 0.01 | 0.00 | 38 | 1003.0 |
| 20260504191402 | 73 | 225 | 3.5 | 13.9 | 0.00 | 0.01 | 0.00 | 37 | 1003.0 |
| 20260504190902 | 73 | 250 | 4.3 | 16.5 | 0.00 | 0.01 | 0.00 | 36 | 1003.1 |
| 20260504190402 | 72 | 227 | 5.2 | 20.0 | 0.00 | 0.01 | 0.00 | 37 | 1003.2 |
| 20260504185901 | 72 | 236 | 7.0 | 21.7 | 0.00 | 0.01 | 0.00 | 37 | 1003.5 |
| 20260504185403 | 72 | 227 | 9.6 | 23.5 | 0.00 | 0.01 | 0.00 | 36 | 1003.4 |
| 20260504184901 | 72 | 0 | 7.8 | 23.5 | 0.00 | 0.01 | 0.00 | 37 | 1003.4 |
| 20260504184516 | 72 | 202 | 5.2 | 18.2 | 0.00 | 0.01 | 0.00 | 38 | 1003.4 |
| 20260504183901 | 72 | 220 | 4.3 | 17.4 | 0.00 | 0.01 | 0.00 | 41 | 1003.3 |
| 20260504183403 | 72 | 215 | 4.3 | 17.4 | 0.00 | 0.01 | 0.00 | 40 | 1003.4 |
| 20260504182901 | 72 | 269 | 6.1 | 23.5 | 0.00 | 0.01 | 0.00 | 40 | 1003.6 |
| 20260504182402 | 71 | 231 | 7.8 | 23.5 | 0.00 | 0.01 | 0.00 | 40 | 1003.6 |
| 20260504181901 | 71 | 211 | 6.1 | 19.1 | 0.00 | 0.01 | 0.00 | 40 | 1003.6 |
| 20260504181402 | 71 | 251 | 7.0 | 17.4 | 0.00 | 0.01 | 0.00 | 42 | 1003.7 |
| 20260504180901 | 71 | 244 | 4.3 | 17.4 | 0.00 | 0.01 | 0.00 | 41 | 1003.8 |
| 20260504180402 | 72 | 248 | 2.6 | 13.0 | 0.00 | 0.01 | 0.00 | 42 | 1003.8 |
| 20260504175902 | 71 | 0 | 4.3 | 14.8 | 0.00 | 0.01 | 0.00 | 41 | 1004.0 |
| 20260504175401 | 71 | 229 | 3.5 | 14.8 | 0.00 | 0.01 | 0.00 | 41 | 1003.8 |
| 20260504174902 | 71 | 238 | 1.7 | 12.2 | 0.00 | 0.01 | 0.00 | 44 | 1003.9 |
| 20260504174401 | 71 | 0 | 2.6 | 13.0 | 0.00 | 0.01 | 0.00 | 43 | 1003.9 |
| 20260504173901 | 70 | 219 | 3.5 | 13.0 | 0.00 | 0.01 | 0.00 | 43 | 1004.0 |
| 20260504173401 | 70 | 248 | 4.3 | 13.9 | 0.00 | 0.01 | 0.00 | 44 | 1004.0 |
| 20260504172901 | 70 | 199 | 4.3 | 17.4 | 0.00 | 0.01 | 0.00 | 42 | 1004.1 |
| 20260504172400 | 70 | 0 | 2.6 | 17.4 | 0.00 | 0.01 | 0.00 | 43 | 1004.1 |
| 20260504171901 | 70 | 240 | 2.6 | 13.0 | 0.00 | 0.01 | 0.00 | 44 | 1004.1 |
| 20260504171401 | 69 | 241 | 2.6 | 13.9 | 0.00 | 0.01 | 0.00 | 44 | 1004.1 |
| 20260504170901 | 69 | 261 | 2.6 | 13.9 | 0.00 | 0.01 | 0.00 | 44 | 1004.2 |
| 20260504170401 | 69 | 250 | 2.6 | 13.9 | 0.00 | 0.01 | 0.00 | 45 | 1004.2 |